Time;durP1;ratioP1;P1;durP2;ratioP2;P2;SDS_P1;SDS_P2;PMS_P1;PMS_P2;Temp;Humidity;BMP_temperature;BMP_pressure;BME280_temperature;BME280_humidity;BME280_pressure;Samples;Min_cycle;Max_cycle;Signal;HPM_P1;HPM_P2
2023/10/30 00:00:27;;;;;;;38.60;22.63;;;333.30;2329.60;;;;;;5039777;28;20108;-56
2023/10/30 00:02:52;;;;;;;108.88;59.70;;;333.20;2329.60;;;;;;5032119;28;20594;-57
2023/10/30 00:05:18;;;;;;;16.13;9.93;;;333.20;2329.60;;;;;;5037487;28;20051;-59
2023/10/30 00:07:44;;;;;;;29.13;14.40;;;333.40;2329.60;;;;;;5046145;28;20118;-57
2023/10/30 00:10:09;;;;;;;60.15;31.88;;;333.70;2329.60;;;;;;5029696;28;20387;-60
2023/10/30 00:12:35;;;;;;;36.05;20.73;;;358.80;2329.60;;;;;;5044607;28;20044;-62
2023/10/30 00:15:03;;;;;;;35.75;18.88;;;359.00;2329.60;;;;;;5047251;28;20083;-62
2023/10/30 00:17:32;;;;;;;26.98;16.08;;;359.20;2329.60;;;;;;5048488;28;20033;-61
2023/10/30 00:20:01;;;;;;;12.18;6.75;;;359.30;2329.60;;;;;;5048348;28;20107;-62
2023/10/30 00:22:26;;;;;;;17.77;8.13;;;359.20;2329.60;;;;;;5039365;28;20100;-63
2023/10/30 00:24:52;;;;;;;10.68;3.85;;;359.00;2329.60;;;;;;5029830;28;20117;-63
2023/10/30 00:27:18;;;;;;;8.55;4.85;;;358.90;2329.60;;;;;;5029495;28;20468;-61
2023/10/30 00:29:44;;;;;;;16.48;10.25;;;358.80;2329.60;;;;;;5030410;28;20040;-62
2023/10/30 00:32:10;;;;;;;8.38;3.92;;;358.60;2329.60;;;;;;5034972;28;20112;-61
2023/10/30 00:34:35;;;;;;;19.75;9.45;;;358.40;2329.60;;;;;;5043465;28;20036;-63
2023/10/30 00:37:01;;;;;;;14.27;7.80;;;333.70;2329.60;;;;;;5038908;28;20026;-63
2023/10/30 00:39:31;;;;;;;28.42;16.15;;;333.70;2329.60;;;;;;5040810;28;20032;-61
2023/10/30 00:42:00;;;;;;;7.72;4.30;;;333.70;2329.60;;;;;;5038019;28;20034;-62
2023/10/30 00:44:27;;;;;;;9.88;5.13;;;333.70;2329.60;;;;;;5032098;28;20563;-62
2023/10/30 00:46:53;;;;;;;11.88;4.97;;;333.70;2329.60;;;;;;5038343;28;20087;-63
2023/10/30 00:49:19;;;;;;;9.02;6.00;;;333.70;2329.60;;;;;;5032367;28;20108;-62
2023/10/30 00:51:46;;;;;;;11.02;6.00;;;333.70;2329.60;;;;;;5037276;28;20021;-62
2023/10/30 00:54:11;;;;;;;8.80;5.03;;;333.60;2329.60;;;;;;5043990;28;20025;-62
2023/10/30 00:56:37;;;;;;;9.00;5.03;;;333.60;2329.60;;;;;;5046190;28;20036;-60
2023/10/30 00:59:03;;;;;;;10.25;6.45;;;333.50;2329.60;;;;;;5044989;28;20053;-63
2023/10/30 01:01:28;;;;;;;6.00;3.78;;;333.50;2329.60;;;;;;5047124;28;20082;-61
2023/10/30 01:03:54;;;;;;;6.97;3.58;;;333.40;2329.60;;;;;;5045869;28;20048;-62
2023/10/30 01:06:20;;;;;;;7.32;4.75;;;333.50;2329.60;;;;;;5032600;28;20108;-61
2023/10/30 01:08:46;;;;;;;8.57;4.32;;;333.40;2329.60;;;;;;5033131;28;20090;-62
2023/10/30 01:11:11;;;;;;;18.90;12.10;;;333.40;2329.60;;;;;;5041602;28;20402;-61
2023/10/30 01:13:37;;;;;;;66.20;33.88;;;333.40;2329.60;;;;;;5038219;28;20159;-61
2023/10/30 01:16:05;;;;;;;98.90;50.60;;;333.30;2329.60;;;;;;5037291;28;20030;-62
2023/10/30 01:18:31;;;;;;;127.82;60.65;;;333.30;2329.60;;;;;;5032595;28;20036;-62
2023/10/30 01:20:57;;;;;;;86.63;44.40;;;333.10;2329.60;;;;;;5034885;28;20037;-62
2023/10/30 01:23:22;;;;;;;70.20;40.75;;;333.00;2329.60;;;;;;5044252;28;20037;-61
2023/10/30 01:25:49;;;;;;;13.77;8.65;;;332.90;2329.60;;;;;;5044987;28;20018;-62
2023/10/30 01:28:15;;;;;;;37.95;18.00;;;332.90;2329.60;;;;;;5031955;28;20060;-62
2023/10/30 01:30:41;;;;;;;28.08;16.15;;;332.90;2329.60;;;;;;5032054;28;20495;-62
2023/10/30 01:33:06;;;;;;;27.30;13.48;;;333.00;2329.60;;;;;;5019766;28;20108;-61
2023/10/30 01:35:32;;;;;;;39.97;19.75;;;333.10;2329.60;;;;;;5033070;28;20418;-62
2023/10/30 01:37:58;;;;;;;28.23;15.70;;;333.10;2329.60;;;;;;5032736;28;20033;-62
2023/10/30 01:40:24;;;;;;;17.80;8.82;;;333.00;2329.60;;;;;;5033980;28;20440;-62
2023/10/30 01:42:50;;;;;;;11.90;6.43;;;332.90;2329.60;;;;;;5048709;28;20148;-61
2023/10/30 01:45:16;;;;;;;7.90;4.65;;;332.90;2329.60;;;;;;5047057;28;20021;-61
2023/10/30 01:47:42;;;;;;;8.30;4.28;;;332.80;2329.60;;;;;;5027592;28;20051;-62
2023/10/30 01:50:10;;;;;;;7.32;4.15;;;308.10;2304.00;;;;;;5041704;28;20052;-61
2023/10/30 01:52:37;;;;;;;55.90;29.73;;;308.10;2304.00;;;;;;5042519;28;20371;-60
2023/10/30 01:55:04;;;;;;;21.60;10.05;;;307.90;2304.00;;;;;;5048307;28;20033;-61
2023/10/30 01:57:32;;;;;;;35.47;18.10;;;307.80;2304.00;;;;;;5033827;28;20113;-63
2023/10/30 01:59:58;;;;;;;11.52;4.85;;;307.80;2304.00;;;;;;5031233;28;20192;-61
2023/10/30 02:02:28;;;;;;;21.20;9.70;;;307.80;2304.00;;;;;;5039134;28;20113;-62
2023/10/30 02:04:54;;;;;;;6.57;3.55;;;307.80;2304.00;;;;;;5018400;28;20055;-61
2023/10/30 02:07:20;;;;;;;7.35;3.35;;;307.90;2304.00;;;;;;5031044;28;20065;-61
2023/10/30 02:09:46;;;;;;;10.05;4.80;;;307.80;2304.00;;;;;;5031307;28;20030;-62
2023/10/30 02:12:12;;;;;;;5.63;2.78;;;307.80;2304.00;;;;;;5031804;28;20033;-60
2023/10/30 02:14:38;;;;;;;7.45;4.00;;;307.80;2304.00;;;;;;5041514;28;20489;-62
2023/10/30 02:17:04;;;;;;;8.10;3.85;;;307.70;2304.00;;;;;;5035970;28;20040;-63
2023/10/30 02:19:30;;;;;;;34.00;17.15;;;307.70;2304.00;;;;;;5042318;28;20050;-63
2023/10/30 02:21:56;;;;;;;17.55;10.60;;;307.60;2304.00;;;;;;5018759;28;20021;-62
2023/10/30 02:24:22;;;;;;;17.90;9.25;;;307.60;2304.00;;;;;;5041123;28;20040;-62
2023/10/30 02:26:49;;;;;;;11.13;6.68;;;307.50;2304.00;;;;;;5048680;28;20412;-62
2023/10/30 02:29:15;;;;;;;9.20;5.47;;;307.60;2304.00;;;;;;5049230;28;20116;-63
2023/10/30 02:31:41;;;;;;;15.90;7.78;;;307.50;2304.00;;;;;;5048944;28;20112;-63
2023/10/30 02:34:08;;;;;;;9.07;5.35;;;307.50;2304.00;;;;;;5050257;28;20107;-62
2023/10/30 02:36:34;;;;;;;13.43;7.75;;;307.50;2304.00;;;;;;5044462;28;20071;-63
2023/10/30 02:39:03;;;;;;;15.10;7.55;;;307.60;2304.00;;;;;;5031146;28;20028;-61
2023/10/30 02:41:31;;;;;;;28.25;15.07;;;307.50;2304.00;;;;;;5030174;28;20029;-63
2023/10/30 02:44:00;;;;;;;21.45;11.52;;;307.50;2304.00;;;;;;5043623;28;20104;-62
2023/10/30 02:46:27;;;;;;;6.20;3.33;;;307.50;2304.00;;;;;;5030542;28;20021;-61
2023/10/30 02:48:53;;;;;;;5.05;2.88;;;307.60;2304.00;;;;;;5031860;28;20041;-63
2023/10/30 02:51:19;;;;;;;8.77;6.13;;;307.60;2304.00;;;;;;5033293;28;20017;-63
2023/10/30 02:53:44;;;;;;;10.85;7.00;;;307.70;2304.00;;;;;;5013285;28;20455;-62
2023/10/30 02:56:10;;;;;;;12.75;6.97;;;307.60;2304.00;;;;;;5030611;28;20028;-61
2023/10/30 02:58:36;;;;;;;12.90;8.18;;;307.60;2304.00;;;;;;5042769;28;20062;-60
2023/10/30 03:01:02;;;;;;;25.02;16.45;;;307.60;2304.00;;;;;;5032662;28;20415;-61
2023/10/30 03:03:29;;;;;;;108.82;67.55;;;307.50;2304.00;;;;;;5043558;28;20044;-61
2023/10/30 03:05:55;;;;;;;14.48;8.77;;;307.40;2304.00;;;;;;5041961;28;20104;-63
2023/10/30 03:08:20;;;;;;;17.88;10.07;;;307.30;2304.00;;;;;;5031174;28;20084;-62
2023/10/30 03:10:49;;;;;;;35.38;20.42;;;307.30;2304.00;;;;;;5030716;28;20029;-62
2023/10/30 03:13:14;;;;;;;34.00;16.35;;;307.40;2304.00;;;;;;5050672;28;20051;-63
2023/10/30 03:15:45;;;;;;;70.90;36.50;;;307.40;2304.00;;;;;;5051057;28;20104;-63
2023/10/30 03:18:11;;;;;;;27.95;15.18;;;307.40;2304.00;;;;;;5051273;28;20029;-63
2023/10/30 03:20:36;;;;;;;18.45;10.50;;;307.40;2304.00;;;;;;5050563;28;20120;-63
2023/10/30 03:23:02;;;;;;;10.63;5.65;;;307.40;2304.00;;;;;;5035634;28;20339;-64
2023/10/30 03:25:28;;;;;;;12.52;6.38;;;307.50;2304.00;;;;;;5050113;28;20056;-62
2023/10/30 03:27:54;;;;;;;13.77;7.40;;;307.40;2304.00;;;;;;5048528;28;20068;-62
2023/10/30 03:30:20;;;;;;;11.27;7.35;;;307.50;2304.00;;;;;;5048821;28;20013;-63
2023/10/30 03:32:45;;;;;;;9.95;5.68;;;307.50;2304.00;;;;;;5049173;28;20040;-63
2023/10/30 03:35:11;;;;;;;14.27;8.60;;;307.50;2304.00;;;;;;5049746;28;20029;-62
2023/10/30 03:37:37;;;;;;;8.95;6.85;;;307.50;2304.00;;;;;;5048801;28;20360;-62
2023/10/30 03:40:03;;;;;;;14.82;9.73;;;307.40;2304.00;;;;;;5049015;28;20056;-62
2023/10/30 03:42:29;;;;;;;10.68;6.90;;;307.40;2304.00;;;;;;5049208;28;20478;-62
2023/10/30 03:44:54;;;;;;;12.63;6.88;;;307.30;2304.00;;;;;;5048365;28;20027;-61
2023/10/30 03:47:20;;;;;;;10.73;6.00;;;307.30;2304.00;;;;;;5049196;28;20025;-62
2023/10/30 03:49:46;;;;;;;5.95;3.40;;;307.20;2304.00;;;;;;5049033;28;20386;-62
2023/10/30 03:52:11;;;;;;;10.30;6.63;;;307.30;2304.00;;;;;;5049156;28;20036;-62
2023/10/30 03:54:37;;;;;;;10.68;5.30;;;307.30;2304.00;;;;;;5029504;28;20029;-63
2023/10/30 03:57:03;;;;;;;6.65;3.20;;;307.30;2304.00;;;;;;5041637;28;20029;-63
2023/10/30 03:59:29;;;;;;;8.90;3.92;;;307.30;2304.00;;;;;;5049125;28;20063;-62
2023/10/30 04:01:54;;;;;;;6.13;3.50;;;307.30;2304.00;;;;;;5048470;28;20037;-63
2023/10/30 04:04:20;;;;;;;4.82;3.03;;;307.30;2304.00;;;;;;5048737;28;20017;-62
2023/10/30 04:06:46;;;;;;;4.85;2.97;;;307.30;2304.00;;;;;;5048927;28;20110;-62
2023/10/30 04:09:11;;;;;;;6.18;3.40;;;307.30;2304.00;;;;;;5043199;28;20034;-62
2023/10/30 04:11:37;;;;;;;7.05;4.10;;;307.30;2304.00;;;;;;5042109;28;20021;-62
2023/10/30 04:14:03;;;;;;;10.73;3.80;;;307.20;2304.00;;;;;;5048981;28;20467;-64
2023/10/30 04:16:29;;;;;;;5.22;2.80;;;307.20;2304.00;;;;;;5048675;28;20021;-61
2023/10/30 04:18:55;;;;;;;5.60;3.40;;;282.50;2278.40;;;;;;5047950;28;20040;-62
2023/10/30 04:21:20;;;;;;;4.25;2.47;;;282.50;2278.40;;;;;;5048805;28;20041;-63
2023/10/30 04:23:46;;;;;;;5.80;2.60;;;307.20;2304.00;;;;;;5048481;28;20055;-63
2023/10/30 04:26:12;;;;;;;5.18;3.22;;;307.20;2304.00;;;;;;5048692;28;20025;-63
2023/10/30 04:28:38;;;;;;;8.10;3.85;;;307.20;2304.00;;;;;;5048605;28;20041;-62
2023/10/30 04:31:06;;;;;;;5.57;3.17;;;307.20;2304.00;;;;;;5032908;28;20033;-63
2023/10/30 04:33:32;;;;;;;7.15;4.28;;;307.20;2304.00;;;;;;5043145;28;20061;-61
2023/10/30 04:36:02;;;;;;;9.82;5.65;;;307.20;2304.00;;;;;;5048670;28;20434;-63
2023/10/30 04:38:33;;;;;;;7.63;5.07;;;307.20;2304.00;;;;;;5024093;28;20100;-62
2023/10/30 04:41:05;;;;;;;9.30;6.00;;;307.20;2304.00;;;;;;5052217;28;20025;-62
2023/10/30 04:43:34;;;;;;;8.02;4.93;;;282.50;2278.40;;;;;;5052789;28;20032;-62
2023/10/30 04:46:00;;;;;;;5.63;3.05;;;282.50;2278.40;;;;;;5052478;28;20021;-62
2023/10/30 04:48:26;;;;;;;14.80;7.55;;;307.20;2304.00;;;;;;5051230;28;20372;-62
2023/10/30 04:50:52;;;;;;;55.60;29.02;;;282.50;2278.40;;;;;;5052258;28;20017;-62
2023/10/30 04:53:17;;;;;;;41.97;23.08;;;282.50;2278.40;;;;;;5052345;28;20458;-62
2023/10/30 04:55:43;;;;;;;24.65;12.80;;;307.20;2304.00;;;;;;5051701;28;20029;-62
2023/10/30 04:58:09;;;;;;;32.75;17.70;;;282.50;2278.40;;;;;;5052444;28;20455;-62
2023/10/30 05:00:35;;;;;;;25.58;12.27;;;282.50;2278.40;;;;;;5051807;28;20106;-62
2023/10/30 05:03:02;;;;;;;18.58;8.07;;;282.50;2278.40;;;;;;5052284;28;20029;-62
2023/10/30 05:05:28;;;;;;;12.32;4.93;;;307.20;2304.00;;;;;;5030540;28;20084;-61
2023/10/30 05:07:54;;;;;;;12.57;5.35;;;282.50;2278.40;;;;;;5041176;28;20047;-63
2023/10/30 05:10:20;;;;;;;11.40;5.45;;;307.20;2304.00;;;;;;5048648;28;20025;-62
2023/10/30 05:12:46;;;;;;;14.43;7.05;;;307.30;2304.00;;;;;;5044864;28;20482;-62
2023/10/30 05:15:11;;;;;;;14.77;9.38;;;307.50;2304.00;;;;;;5051540;28;20479;-63
2023/10/30 05:17:38;;;;;;;28.60;15.25;;;307.40;2304.00;;;;;;5051546;28;20059;-62
2023/10/30 05:20:04;;;;;;;8.60;5.20;;;307.40;2304.00;;;;;;5051062;28;20106;-63
2023/10/30 05:22:32;;;;;;;9.23;4.20;;;307.40;2304.00;;;;;;5051774;28;20029;-62
2023/10/30 05:24:58;;;;;;;5.57;3.58;;;307.50;2304.00;;;;;;5051596;28;20017;-62
2023/10/30 05:27:25;;;;;;;6.53;3.85;;;307.50;2304.00;;;;;;5050484;28;20538;-60
2023/10/30 05:29:51;;;;;;;10.90;6.20;;;307.60;2304.00;;;;;;5041708;28;20041;-60
2023/10/30 05:32:17;;;;;;;8.80;3.45;;;307.90;2304.00;;;;;;5039466;28;20037;-62
2023/10/30 05:34:43;;;;;;;7.10;4.05;;;307.60;2304.00;;;;;;5051662;28;20029;-62
2023/10/30 05:37:09;;;;;;;12.10;6.15;;;307.70;2304.00;;;;;;5037650;28;20021;-62
2023/10/30 05:39:35;;;;;;;11.82;6.43;;;307.60;2304.00;;;;;;5051166;28;20033;-62
2023/10/30 05:42:02;;;;;;;12.85;6.50;;;307.70;2304.00;;;;;;5027741;28;20017;-62
2023/10/30 05:44:31;;;;;;;10.70;6.13;;;307.70;2304.00;;;;;;5033806;28;20148;-61
2023/10/30 05:47:00;;;;;;;14.98;5.75;;;307.80;2304.00;;;;;;5050447;28;20047;-62
2023/10/30 05:49:26;;;;;;;38.75;26.65;;;307.90;2304.00;;;;;;5051426;28;20075;-62
2023/10/30 05:51:53;;;;;;;12.40;5.95;;;308.10;2304.00;;;;;;5050115;28;20013;-62
2023/10/30 05:54:19;;;;;;;10.57;6.93;;;332.80;2329.60;;;;;;5051061;28;20029;-62
2023/10/30 05:56:45;;;;;;;21.83;6.63;;;332.90;2329.60;;;;;;5032827;28;20071;-62
2023/10/30 05:59:10;;;;;;;16.92;8.18;;;332.90;2329.60;;;;;;5040439;28;20025;-62
2023/10/30 06:01:36;;;;;;;12.35;7.57;;;333.10;2329.60;;;;;;5039361;28;20037;-62
2023/10/30 06:04:02;;;;;;;15.85;12.85;;;333.20;2329.60;;;;;;5046458;28;20027;-62
2023/10/30 06:06:28;;;;;;;14.35;8.32;;;333.20;2329.60;;;;;;5050972;28;20429;-63
2023/10/30 06:08:54;;;;;;;22.00;15.15;;;333.20;2329.60;;;;;;5050862;28;20066;-62
2023/10/30 06:11:20;;;;;;;22.42;12.73;;;333.30;2329.60;;;;;;5031527;28;20379;-63
2023/10/30 06:13:46;;;;;;;15.57;12.43;;;333.40;2329.60;;;;;;5041470;28;20029;-62
2023/10/30 06:16:16;;;;;;;14.80;10.70;;;333.50;2329.60;;;;;;5050733;28;20032;-61
2023/10/30 06:18:41;;;;;;;13.35;9.20;;;333.60;2329.60;;;;;;5050251;28;20367;-62
2023/10/30 06:21:10;;;;;;;15.73;10.15;;;333.70;2329.60;;;;;;5050037;28;20086;-61
2023/10/30 06:23:36;;;;;;;14.25;8.48;;;358.40;2329.60;;;;;;5047347;28;20056;-62
2023/10/30 06:26:08;;;;;;;13.30;7.63;;;358.60;2329.60;;;;;;5048072;28;20069;-61
2023/10/30 06:28:34;;;;;;;15.03;8.83;;;358.70;2329.60;;;;;;5050255;28;20026;-61
2023/10/30 06:31:00;;;;;;;21.85;9.13;;;358.80;2329.60;;;;;;5040236;28;20745;-61
2023/10/30 06:33:26;;;;;;;23.90;12.88;;;358.80;2329.60;;;;;;5041572;28;20467;-62
2023/10/30 06:36:00;;;;;;;18.00;11.45;;;359.00;2329.60;;;;;;5031109;28;20027;-61
2023/10/30 06:38:27;;;;;;;14.60;8.38;;;359.10;2329.60;;;;;;5036409;28;20036;-60
2023/10/30 06:40:54;;;;;;;25.63;22.48;;;359.30;2329.60;;;;;;5030168;28;20026;-62
2023/10/30 06:43:19;;;;;;;29.67;24.92;;;359.10;2329.60;;;;;;5035300;28;20470;-62
2023/10/30 06:45:45;;;;;;;28.33;20.67;;;359.20;2329.60;;;;;;5029969;28;20117;-61
2023/10/30 06:48:11;;;;;;;24.05;16.70;;;359.20;2329.60;;;;;;5030588;28;20029;-63
2023/10/30 06:50:37;;;;;;;16.50;10.98;;;359.00;2329.60;;;;;;5032157;28;20029;-62
2023/10/30 06:53:02;;;;;;;9.23;7.13;;;358.90;2329.60;;;;;;5050355;28;20167;-63
2023/10/30 06:55:28;;;;;;;14.60;7.20;;;359.00;2329.60;;;;;;5049614;28;20029;-61
2023/10/30 06:57:54;;;;;;;11.75;7.47;;;359.10;2329.60;;;;;;5050146;28;20039;-63
2023/10/30 07:00:20;;;;;;;13.68;9.20;;;359.30;2329.60;;;;;;5050083;28;20368;-62
2023/10/30 07:02:46;;;;;;;20.73;16.10;;;359.20;2329.60;;;;;;5049479;28;20025;-65
2023/10/30 07:05:12;;;;;;;15.25;11.63;;;384.10;2329.60;;;;;;5049277;28;20515;-65
2023/10/30 07:07:37;;;;;;;14.57;10.70;;;384.10;2329.60;;;;;;5045261;28;20052;-66
2023/10/30 07:10:03;;;;;;;14.27;8.57;;;384.40;2329.60;;;;;;5043622;28;20029;-67
2023/10/30 07:12:29;;;;;;;18.70;10.52;;;384.70;2329.60;;;;;;5030854;28;20670;-65
2023/10/30 07:14:55;;;;;;;24.38;15.68;;;384.80;2329.60;;;;;;5042593;28;20029;-65
2023/10/30 07:17:21;;;;;;;27.33;16.60;;;384.90;2329.60;;;;;;5030854;28;20029;-65
2023/10/30 07:19:48;;;;;;;27.38;16.30;;;409.90;2355.20;;;;;;5037841;28;20080;-68
2023/10/30 07:22:14;;;;;;;23.05;15.35;;;436.00;2355.20;;;;;;5032158;28;20056;-65
2023/10/30 07:24:39;;;;;;;20.50;14.25;;;487.00;2380.80;;;;;;5037255;28;20029;-69
2023/10/30 07:27:05;;;;;;;12.93;9.10;;;538.40;2278.40;;;;;;5047520;28;20017;-65
2023/10/30 07:29:31;;;;;;;26.15;15.65;;;588.90;2099.20;;;;;;5049368;28;20036;-65
2023/10/30 07:31:57;;;;;;;41.60;16.75;;;589.10;2048.00;;;;;;5043473;28;20056;-67
2023/10/30 07:34:23;;;;;;;14.45;9.82;;;614.40;1971.20;;;;;;5044120;28;20075;-65
2023/10/30 07:36:48;;;;;;;14.45;9.10;;;615.20;1868.80;;;;;;5049053;28;20131;-67
2023/10/30 07:39:14;;;;;;;14.48;8.32;;;640.60;1792.00;;;;;;5048092;28;20115;-68
2023/10/30 07:41:40;;;;;;;13.95;9.55;;;666.20;1766.40;;;;;;5049735;28;20132;-66
2023/10/30 07:44:09;;;;;;;17.27;11.63;;;691.80;1689.60;;;;;;5047180;28;20075;-68
2023/10/30 07:46:35;;;;;;;17.27;11.48;;;717.20;1664.00;;;;;;5036996;28;20466;-67
2023/10/30 07:49:06;;;;;;;10.10;8.20;;;742.80;1587.20;;;;;;5048834;28;20556;-64
2023/10/30 07:51:32;;;;;;;28.23;25.42;;;768.50;1510.40;;;;;;5049137;28;20090;-68
2023/10/30 07:53:59;;;;;;;19.67;16.25;;;794.50;1459.20;;;;;;5032925;28;20036;-67
2023/10/30 07:56:24;;;;;;;11.25;9.60;;;819.60;1433.60;;;;;;5038769;28;20020;-66
2023/10/30 07:58:50;;;;;;;23.55;18.67;;;845.20;1382.40;;;;;;5045876;28;20025;-66
2023/10/30 08:01:19;;;;;;;24.13;20.50;;;819.70;1382.40;;;;;;5046829;28;20092;-68
2023/10/30 08:03:45;;;;;;;21.85;19.45;;;819.40;1408.00;;;;;;5058176;28;20429;-68
2023/10/30 08:06:11;;;;;;;22.05;17.75;;;819.80;1382.40;;;;;;5051863;28;20025;-67
2023/10/30 08:08:36;;;;;;;26.98;23.63;;;844.90;1356.80;;;;;;5057694;28;20033;-72
2023/10/30 08:11:02;;;;;;;15.65;12.63;;;845.20;1331.20;;;;;;5051808;28;20742;-68
2023/10/30 08:13:28;;;;;;;29.15;19.40;;;819.60;1331.20;;;;;;5040867;28;20098;-68
2023/10/30 08:15:54;;;;;;;19.85;17.80;;;819.60;1356.80;;;;;;5052296;28;20514;-67
2023/10/30 08:18:20;;;;;;;32.45;22.55;;;794.50;1356.80;;;;;;5051284;28;20036;-67
2023/10/30 08:20:46;;;;;;;26.17;19.95;;;793.70;1433.60;;;;;;5039821;28;20071;-66
2023/10/30 08:23:12;;;;;;;24.77;18.63;;;768.90;1408.00;;;;;;5051749;28;20493;-64
2023/10/30 08:25:38;;;;;;;31.80;23.00;;;793.90;1408.00;;;;;;5052047;28;20029;-64
2023/10/30 08:28:04;;;;;;;27.65;18.98;;;794.50;1356.80;;;;;;5051889;28;20128;-68
2023/10/30 08:30:30;;;;;;;27.23;19.65;;;794.00;1408.00;;;;;;5051934;28;20017;-67
2023/10/30 08:32:56;;;;;;;30.05;21.17;;;794.40;1408.00;;;;;;5052039;28;20102;-68
2023/10/30 08:35:22;;;;;;;28.25;20.58;;;845.10;1356.80;;;;;;5041994;28;20479;-68
2023/10/30 08:37:48;;;;;;;23.83;18.63;;;819.90;1331.20;;;;;;5037014;28;20059;-67
2023/10/30 08:40:14;;;;;;;21.95;18.48;;;820.00;1356.80;;;;;;5051566;28;20415;-68
2023/10/30 08:42:40;;;;;;;24.13;16.63;;;845.40;1331.20;;;;;;5051735;28;20028;-68
2023/10/30 08:45:07;;;;;;;22.95;17.48;;;870.70;1280.00;;;;;;5051995;28;20048;-69
2023/10/30 08:47:33;;;;;;;20.33;15.35;;;845.70;1280.00;;;;;;5051215;28;20037;-68
2023/10/30 08:49:59;;;;;;;18.65;12.60;;;845.30;1305.60;;;;;;5051712;28;20140;-67
2023/10/30 08:52:25;;;;;;;19.95;13.75;;;871.00;1228.80;;;;;;5051561;28;20025;-68
2023/10/30 08:54:50;;;;;;;19.70;16.33;;;871.30;1203.20;;;;;;5051729;28;20054;-67
2023/10/30 08:57:19;;;;;;;16.27;11.60;;;820.10;1305.60;;;;;;5051232;28;20094;-68
2023/10/30 08:59:45;;;;;;;15.43;11.35;;;819.40;1331.20;;;;;;5051074;28;20481;-68
2023/10/30 09:02:11;;;;;;;17.27;12.20;;;819.20;1331.20;;;;;;5051634;28;20116;-68
2023/10/30 09:04:36;;;;;;;16.83;12.32;;;819.30;1331.20;;;;;;5050929;28;20100;-67
2023/10/30 09:07:03;;;;;;;15.85;14.15;;;768.90;1356.80;;;;;;5046161;28;20025;-67
2023/10/30 09:09:29;;;;;;;18.52;15.75;;;742.70;1459.20;;;;;;5027615;28;20033;-66
2023/10/30 09:11:55;;;;;;;20.13;14.77;;;742.50;1484.80;;;;;;5033518;28;20055;-68
2023/10/30 09:14:20;;;;;;;20.40;14.18;;;691.80;1510.40;;;;;;5051277;28;20455;-67
2023/10/30 09:16:46;;;;;;;25.90;18.27;;;666.40;1561.60;;;;;;5050665;28;20017;-65
2023/10/30 09:19:12;;;;;;;22.67;16.10;;;666.30;1587.20;;;;;;5051167;28;20029;-64
2023/10/30 09:21:38;;;;;;;20.45;13.90;;;640.70;1587.20;;;;;;5050621;28;20025;-64
2023/10/30 09:24:04;;;;;;;22.42;12.38;;;640.40;1638.40;;;;;;5050149;28;20036;-65
2023/10/30 09:26:29;;;;;;;24.98;14.35;;;640.30;1638.40;;;;;;5048814;28;20036;-63
2023/10/30 09:28:55;;;;;;;19.75;11.90;;;640.00;1664.00;;;;;;5050463;28;20037;-64
2023/10/30 09:31:21;;;;;;;18.67;10.68;;;614.70;1715.20;;;;;;5050067;28;20112;-65
2023/10/30 09:33:48;;;;;;;20.52;12.63;;;614.70;1740.80;;;;;;5050802;28;20033;-63
2023/10/30 09:36:14;;;;;;;20.25;12.75;;;614.50;1766.40;;;;;;5049735;28;20025;-64
2023/10/30 09:38:41;;;;;;;20.48;11.30;;;589.30;1817.60;;;;;;5050393;28;20024;-64
2023/10/30 09:41:09;;;;;;;17.05;10.40;;;;;;;;;;5042443;28;20029;-64
2023/10/30 09:43:37;;;;;;;18.08;11.93;;;589.20;1843.20;;;;;;5030330;28;20017;-65
2023/10/30 09:46:06;;;;;;;17.92;10.38;;;588.80;1868.80;;;;;;5050144;28;20032;-65
2023/10/30 09:48:33;;;;;;;14.40;8.70;;;588.80;1868.80;;;;;;5050496;28;20040;-63
2023/10/30 09:51:00;;;;;;;23.75;9.93;;;564.10;1868.80;;;;;;5050771;28;20013;-64
2023/10/30 09:53:27;;;;;;;16.55;8.07;;;588.80;1868.80;;;;;;5050070;28;20013;-64
2023/10/30 09:55:54;;;;;;;14.02;8.18;;;588.80;1868.80;;;;;;5050027;28;20356;-65
2023/10/30 09:58:23;;;;;;;11.85;8.95;;;589.00;1843.20;;;;;;5050191;28;20159;-64
2023/10/30 10:00:49;;;;;;;15.52;9.05;;;588.80;1843.20;;;;;;5048943;28;20054;-64
2023/10/30 10:03:15;;;;;;;15.65;8.88;;;589.00;1843.20;;;;;;5050145;28;20124;-64
2023/10/30 10:05:41;;;;;;;15.35;8.52;;;589.20;1843.20;;;;;;5049749;28;20379;-65
2023/10/30 10:08:08;;;;;;;13.43;6.38;;;589.10;1817.60;;;;;;5050221;28;20068;-64
2023/10/30 10:10:59;;;;;;;12.88;6.95;;;589.20;1817.60;;;;;;5049703;28;20025;-65
2023/10/30 10:13:27;;;;;;;10.63;7.60;;;589.50;1817.60;;;;;;5048077;28;20499;-64
2023/10/30 10:15:53;;;;;;;15.13;11.32;;;589.30;1817.60;;;;;;5028118;28;20075;-64
2023/10/30 10:18:30;;;;;;;17.08;12.63;;;589.10;1843.20;;;;;;5041724;28;20029;-64
2023/10/30 10:20:55;;;;;;;26.02;17.40;;;589.20;1868.80;;;;;;5049504;28;20029;-65
2023/10/30 10:23:22;;;;;;;22.90;15.75;;;589.20;1868.80;;;;;;5049299;28;20021;-64
2023/10/30 10:26:03;;;;;;;20.55;15.52;;;589.30;1817.60;;;;;;5049330;28;20106;-65
2023/10/30 10:28:30;;;;;;;21.20;15.70;;;589.50;1817.60;;;;;;5049564;28;20139;-64
2023/10/30 10:30:56;;;;;;;25.08;15.98;;;589.50;1766.40;;;;;;5048322;28;20379;-63
2023/10/30 10:33:28;;;;;;;23.45;15.48;;;589.70;1766.40;;;;;;5049180;28;20037;-64
2023/10/30 10:35:55;;;;;;;17.95;9.75;;;589.50;1792.00;;;;;;5049238;28;20037;-64
2023/10/30 10:38:22;;;;;;;15.90;9.07;;;589.50;1792.00;;;;;;5049146;28;20435;-64
2023/10/30 10:40:49;;;;;;;12.88;7.57;;;589.50;1766.40;;;;;;5049224;28;20025;-63
2023/10/30 10:43:22;;;;;;;13.95;6.82;;;589.70;1792.00;;;;;;5049103;28;20028;-64
2023/10/30 10:45:50;;;;;;;10.80;6.95;;;589.70;1792.00;;;;;;5049149;28;20033;-64
2023/10/30 10:48:16;;;;;;;12.73;7.55;;;589.70;1792.00;;;;;;5043527;28;20061;-64
2023/10/30 10:50:42;;;;;;;13.32;6.28;;;614.40;1792.00;;;;;;5034167;28;20106;-64
2023/10/30 10:53:10;;;;;;;10.48;6.13;;;614.40;1792.00;;;;;;5049162;28;20025;-64
2023/10/30 10:55:42;;;;;;;12.20;6.38;;;614.70;1740.80;;;;;;5048587;28;20028;-64
2023/10/30 10:58:10;;;;;;;11.32;5.68;;;614.70;1740.80;;;;;;5049062;28;20033;-63
2023/10/30 11:00:40;;;;;;;7.72;5.43;;;614.70;1740.80;;;;;;5048514;28;20021;-65
2023/10/30 11:03:08;;;;;;;11.18;5.97;;;614.70;1715.20;;;;;;5048805;28;20036;-65
2023/10/30 11:05:35;;;;;;;9.27;5.40;;;614.80;1740.80;;;;;;5048473;28;20086;-65
2023/10/30 11:08:34;;;;;;;7.00;5.30;;;614.80;1740.80;;;;;;5049026;28;20025;-65
2023/10/30 11:11:08;;;;;;;8.13;4.75;;;614.90;1715.20;;;;;;5026790;28;20029;-65
2023/10/30 11:13:46;;;;;;;6.70;4.25;;;614.90;1664.00;;;;;;5048116;28;20348;-65
2023/10/30 11:16:24;;;;;;;8.02;4.70;;;615.00;1638.40;;;;;;5049026;28;20033;-65
2023/10/30 11:18:58;;;;;;;5.20;2.85;;;615.30;1638.40;;;;;;5039393;28;20037;-66
2023/10/30 11:21:27;;;;;;;4.63;2.67;;;640.10;1484.80;;;;;;5023435;28;20045;-65
2023/10/30 11:23:58;;;;;;;8.25;4.00;;;640.20;1510.40;;;;;;5035814;28;20021;-66
2023/10/30 11:26:30;;;;;;;7.15;3.83;;;640.20;1536.00;;;;;;5048557;28;20024;-66
2023/10/30 11:28:59;;;;;;;9.27;3.40;;;640.20;1587.20;;;;;;5048502;28;20037;-66
2023/10/30 11:31:29;;;;;;;4.05;2.95;;;640.40;1433.60;;;;;;5048087;28;20021;-65
2023/10/30 11:34:13;;;;;;;4.43;2.38;;;640.50;1433.60;;;;;;5048184;28;20040;-66
2023/10/30 11:36:40;;;;;;;4.05;2.10;;;640.70;1382.40;;;;;;5048485;28;20071;-65
2023/10/30 11:39:05;;;;;;;7.78;2.38;;;640.70;1356.80;;;;;;5048456;28;20027;-65
2023/10/30 11:41:31;;;;;;;2.47;1.70;;;640.80;1382.40;;;;;;5048286;28;20032;-67
2023/10/30 11:44:16;;;;;;;3.20;2.10;;;665.60;1356.80;;;;;;5047963;28;20056;-65
2023/10/30 11:46:44;;;;;;;3.45;1.98;;;665.70;1356.80;;;;;;5024481;28;20479;-65
2023/10/30 11:49:14;;;;;;;4.05;2.10;;;665.70;1382.40;;;;;;5046513;28;20078;-67
2023/10/30 11:51:45;;;;;;;4.95;2.28;;;665.70;1382.40;;;;;;5037145;28;20476;-66
2023/10/30 11:54:12;;;;;;;6.60;2.70;;;665.80;1382.40;;;;;;5043974;28;20502;-66
2023/10/30 11:56:38;;;;;;;3.80;2.25;;;665.70;1382.40;;;;;;5048016;28;20017;-65
2023/10/30 11:59:04;;;;;;;3.70;2.55;;;665.80;1356.80;;;;;;5047918;28;20044;-66
2023/10/30 12:01:33;;;;;;;4.85;2.45;;;665.90;1331.20;;;;;;5048027;28;20017;-64
2023/10/30 12:03:59;;;;;;;3.33;1.90;;;665.80;1331.20;;;;;;5048010;28;20112;-65